Time;durP1;ratioP1;P1;durP2;ratioP2;P2;SDS_P1;SDS_P2;PMS_P1;PMS_P2;Temp;Humidity;BMP_temperature;BMP_pressure;BME280_temperature;BME280_humidity;BME280_pressure;Samples;Min_cycle;Max_cycle;Signal;HPM_P1;HPM_P2
2022/05/22 00:00:33;;;;;;;6.05;1.85;;;;;;;20.40;54.18;98519.84;1723837;83;21065;-66
2022/05/22 00:03:00;;;;;;;3.67;1.50;;;;;;;20.39;54.00;98512.81;1723787;83;21087;-66
2022/05/22 00:05:27;;;;;;;2.45;1.30;;;;;;;20.37;53.94;98517.66;1716899;83;21240;-66
2022/05/22 00:07:55;;;;;;;6.15;1.35;;;;;;;20.36;53.88;98516.05;1694570;84;21095;-67
2022/05/22 00:10:22;;;;;;;3.87;1.30;;;;;;;20.33;53.82;98514.66;1694996;84;21493;-66
2022/05/22 00:12:49;;;;;;;2.10;1.25;;;;;;;20.32;53.39;98509.52;1696608;83;21018;-66
2022/05/22 00:15:16;;;;;;;5.33;1.30;;;;;;;20.31;53.43;98521.41;1694730;84;21079;-65
2022/05/22 00:17:43;;;;;;;2.80;1.27;;;;;;;20.29;53.31;98520.85;1694668;84;21151;-64
2022/05/22 00:20:12;;;;;;;2.72;1.47;;;;;;;20.27;53.11;98513.02;1694685;84;21499;-66
2022/05/22 00:22:40;;;;;;;4.60;1.20;;;;;;;20.24;52.99;98509.48;1688237;84;21078;-67
2022/05/22 00:25:10;;;;;;;3.08;1.32;;;;;;;20.23;53.13;98505.98;1679866;85;21101;-64
2022/05/22 00:27:39;;;;;;;1.35;0.85;;;;;;;20.21;53.09;98503.28;1679851;85;21034;-65
2022/05/22 00:30:09;;;;;;;1.22;1.10;;;;;;;20.20;53.17;98493.55;1710218;83;21060;-66
2022/05/22 00:32:38;;;;;;;2.25;1.45;;;;;;;20.19;53.07;98489.25;1708221;84;21030;-66
2022/05/22 00:35:06;;;;;;;3.35;1.30;;;;;;;20.16;52.59;98483.02;1707896;84;20992;-65
2022/05/22 00:37:33;;;;;;;1.65;1.10;;;;;;;20.14;52.33;98487.86;1707821;84;21093;-66
2022/05/22 00:39:59;;;;;;;3.45;1.17;;;;;;;20.13;52.41;98487.06;1695230;84;21030;-67
2022/05/22 00:42:28;;;;;;;1.60;1.32;;;;;;;20.11;52.51;98493.77;1679362;85;21154;-65
2022/05/22 00:44:55;;;;;;;3.42;1.15;;;;;;;20.10;52.49;98496.20;1679356;85;21074;-67
2022/05/22 00:47:23;;;;;;;2.58;1.35;;;;;;;20.08;52.38;98500.50;1679374;85;21023;-66
2022/05/22 00:49:54;;;;;;;1.87;1.30;;;;;;;20.05;52.25;98501.04;1679347;85;21087;-67
2022/05/22 00:52:29;;;;;;;3.35;1.15;;;;;;;20.05;52.06;98501.04;1679435;85;21057;-67
2022/05/22 00:55:02;;;;;;;2.12;1.17;;;;;;;20.04;51.80;98499.41;1714037;83;21149;-66
2022/05/22 00:57:33;;;;;;;1.65;1.30;;;;;;;20.02;51.76;98486.72;1680185;84;21037;-66
2022/05/22 01:00:11;;;;;;;2.72;1.30;;;;;;;20.00;51.47;98487.52;1679461;85;21025;-66
2022/05/22 01:05:22;;;;;;;3.02;1.25;;;;;;;19.96;51.47;98479.14;1637320;87;21109;-66
2022/05/22 01:07:49;;;;;;;1.60;1.15;;;;;;;19.94;51.42;98473.20;1699919;82;21158;-66
2022/05/22 01:10:16;;;;;;;2.27;1.20;;;;;;;19.94;51.41;98469.70;1713941;83;21018;-66
2022/05/22 01:12:43;;;;;;;2.08;1.17;;;;;;;19.92;51.33;98473.19;1713910;83;21007;-66
2022/05/22 01:15:12;;;;;;;3.98;1.20;;;;;;;19.90;51.33;98474.80;1714879;82;21558;-66
2022/05/22 01:17:45;;;;;;;1.75;1.00;;;;;;;19.89;51.34;98470.46;1713867;83;21041;-66
2022/05/22 01:20:12;;;;;;;1.27;1.10;;;;;;;19.87;51.21;98470.45;1714017;83;21845;-66
2022/05/22 01:22:39;;;;;;;3.25;1.27;;;;;;;19.87;51.34;98466.41;1713781;82;21046;-67
2022/05/22 01:25:08;;;;;;;4.92;1.25;;;;;;;19.85;51.20;98459.93;1658461;85;21090;-66
2022/05/22 01:27:38;;;;;;;3.02;1.50;;;;;;;19.83;51.03;98458.84;1679280;85;21057;-66
2022/05/22 01:30:22;;;;;;;2.25;1.07;;;;;;;19.81;51.12;98456.94;1714826;82;21047;-66
2022/05/22 01:32:59;;;;;;;;;;;;;;;19.80;51.07;98452.64;1716163;82;21163;-66
2022/05/22 01:35:27;;;;;;;1.30;1.20;;;;;;;19.79;50.89;98446.16;1713924;83;20162;-66
2022/05/22 01:37:55;;;;;;;4.10;1.20;;;;;;;19.74;50.90;98448.29;1658318;85;21069;-68
2022/05/22 01:40:21;;;;;;;2.70;1.25;;;;;;;19.72;50.80;98443.70;1679293;85;21002;-65
2022/05/22 01:42:50;;;;;;;2.55;1.60;;;;;;;19.72;50.84;98445.56;1713845;82;21581;-66
2022/05/22 01:45:22;;;;;;;3.00;1.27;;;;;;;19.70;50.80;98445.81;1713824;83;21064;-66
2022/05/22 01:47:49;;;;;;;3.80;1.47;;;;;;;19.68;50.80;98433.11;1714275;82;21011;-66
2022/05/22 01:50:16;;;;;;;2.45;1.10;;;;;;;19.68;50.80;98448.47;1713897;83;21027;-66
2022/05/22 01:52:42;;;;;;;4.37;1.57;;;;;;;19.66;50.75;98443.33;1713858;83;21067;-66
2022/05/22 01:55:12;;;;;;;1.77;1.20;;;;;;;19.67;50.75;98440.13;1723774;82;21086;-66
2022/05/22 01:57:40;;;;;;;2.95;1.27;;;;;;;19.65;50.65;98432.30;1743672;81;21210;-66
2022/05/22 02:00:13;;;;;;;5.20;1.20;;;;;;;19.63;50.60;98441.17;1707721;84;21058;-67
2022/05/22 02:02:42;;;;;;;1.42;1.20;;;;;;;19.61;50.67;98431.20;1707984;84;21018;-67
2022/05/22 02:05:11;;;;;;;2.90;1.47;;;;;;;19.60;50.65;98429.02;1692257;83;21033;-66
2022/05/22 02:10:24;;;;;;;1.45;1.35;;;;;;;19.58;50.65;98424.42;1679356;85;21195;-66
2022/05/22 02:12:53;;;;;;;1.27;1.17;;;;;;;19.57;50.58;98422.81;1689507;82;21022;-66
2022/05/22 02:15:20;;;;;;;4.55;1.30;;;;;;;19.56;50.53;98418.48;1707685;84;21522;-65
2022/05/22 02:17:47;;;;;;;3.02;1.40;;;;;;;19.56;50.56;98423.06;1707729;84;21026;-66
2022/05/22 02:20:13;;;;;;;2.37;1.40;;;;;;;19.54;50.53;98413.89;1707726;84;21033;-66
2022/05/22 02:22:45;;;;;;;1.42;1.32;;;;;;;19.53;50.51;98412.28;1686503;83;21073;-66
2022/05/22 02:25:15;;;;;;;1.90;1.40;;;;;;;19.52;50.54;98412.00;1679268;85;21041;-66
2022/05/22 02:27:41;;;;;;;1.40;1.30;;;;;;;19.51;50.53;98402.31;1679294;85;21005;-66
2022/05/22 02:30:10;;;;;;;1.52;1.27;;;;;;;19.50;50.49;98402.02;1679190;85;21021;-66
2022/05/22 02:32:39;;;;;;;1.37;1.27;;;;;;;19.49;50.48;98399.06;1679272;85;21002;-67
2022/05/22 02:35:09;;;;;;;2.10;1.20;;;;;;;19.48;50.46;98397.43;1679279;85;21161;-68
2022/05/22 02:37:49;;;;;;;2.20;1.17;;;;;;;19.47;50.44;98389.60;1703456;83;21590;-67
2022/05/22 02:40:23;;;;;;;1.60;1.22;;;;;;;19.46;50.38;98392.84;1741338;81;21058;-67
2022/05/22 02:42:53;;;;;;;3.25;1.62;;;;;;;19.44;50.37;98386.36;1707656;83;21078;-67
2022/05/22 02:45:25;;;;;;;1.72;1.37;;;;;;;19.42;50.38;98388.50;1743499;81;21078;-67
2022/05/22 02:47:53;;;;;;;3.33;1.60;;;;;;;19.41;50.37;98389.59;1686170;84;21124;-67
2022/05/22 02:50:24;;;;;;;2.05;1.55;;;;;;;19.40;50.35;98375.83;1707764;84;21078;-67
2022/05/22 02:52:51;;;;;;;2.55;1.40;;;;;;;19.40;50.39;98380.41;1707657;84;21026;-67
2022/05/22 02:55:20;;;;;;;2.87;1.40;;;;;;;19.39;50.45;98376.92;1702605;82;21066;-67
2022/05/22 02:57:48;;;;;;;3.02;1.52;;;;;;;19.40;50.44;98375.03;1679165;85;21593;-66
2022/05/22 03:00:30;;;;;;;3.17;1.40;;;;;;;19.39;50.38;98370.70;1679286;85;21313;-67
2022/05/22 03:02:58;;;;;;;2.20;1.50;;;;;;;19.38;50.35;98375.28;1679733;85;21581;-66
2022/05/22 03:05:26;;;;;;;2.87;1.55;;;;;;;19.39;50.33;98372.05;1679714;85;21061;-67
2022/05/22 03:07:53;;;;;;;2.00;1.65;;;;;;;19.38;50.30;98366.40;1679463;85;21018;-66
2022/05/22 03:10:29;;;;;;;1.55;0.90;;;;;;;19.37;50.38;98361.56;1723725;82;20996;-66
2022/05/22 03:12:55;;;;;;;2.90;1.22;;;;;;;19.38;50.36;98356.98;1729626;81;21127;-66
2022/05/22 03:15:25;;;;;;;1.70;1.30;;;;;;;19.37;50.38;98356.17;1678938;85;21505;-66
2022/05/22 03:17:53;;;;;;;4.12;1.10;;;;;;;19.37;50.38;98358.86;1731604;82;21006;-66
2022/05/22 03:20:20;;;;;;;3.45;1.10;;;;;;;19.37;50.34;98357.52;1737246;82;21533;-65
2022/05/22 03:22:47;;;;;;;1.47;1.10;;;;;;;19.37;50.37;98355.34;1737214;82;21778;-66
2022/05/22 03:25:14;;;;;;;1.50;1.37;;;;;;;19.37;50.42;98340.53;1743269;82;21385;-66
2022/05/22 03:27:42;;;;;;;2.58;1.40;;;;;;;19.36;50.41;98341.08;1745086;82;21018;-66
2022/05/22 03:30:11;;;;;;;3.02;1.52;;;;;;;19.36;50.43;98335.69;1746562;82;21347;-66
2022/05/22 03:32:39;;;;;;;2.72;1.27;;;;;;;19.36;50.46;98338.38;1715535;83;21503;-66
2022/05/22 03:35:07;;;;;;;2.08;1.27;;;;;;;19.36;50.44;98331.65;1715582;83;21029;-66
2022/05/22 03:37:33;;;;;;;2.35;1.55;;;;;;;19.36;50.50;98328.16;1715517;83;21199;-66
2022/05/22 03:40:00;;;;;;;3.20;1.47;;;;;;;19.36;50.58;98326.80;1715342;83;21041;-66
2022/05/22 03:42:27;;;;;;;1.40;1.30;;;;;;;19.36;50.60;98325.46;1715441;83;21042;-66
2022/05/22 03:44:55;;;;;;;3.15;1.65;;;;;;;19.37;50.55;98324.37;1715443;83;21088;-66
2022/05/22 03:47:23;;;;;;;3.00;1.40;;;;;;;19.37;50.63;98319.82;1697700;83;21578;-66
2022/05/22 03:49:51;;;;;;;1.20;1.10;;;;;;;19.37;50.62;98315.78;1685364;84;21179;-66
2022/05/22 03:52:19;;;;;;;5.05;1.40;;;;;;;19.37;50.60;98311.74;1686728;85;21017;-67
2022/05/22 03:54:46;;;;;;;3.17;1.30;;;;;;;19.37;50.60;98313.09;1691389;83;20982;-66
2022/05/22 03:57:13;;;;;;;2.55;1.60;;;;;;;19.36;50.62;98314.14;1715428;83;21495;-66
2022/05/22 03:59:41;;;;;;;2.08;1.65;;;;;;;19.38;50.59;98309.85;1751458;81;21070;-66
2022/05/22 04:02:09;;;;;;;3.10;1.35;;;;;;;19.37;50.66;98315.78;1746128;80;21247;-66
2022/05/22 04:04:39;;;;;;;1.82;1.55;;;;;;;19.37;50.59;98314.44;1728394;82;21570;-66
2022/05/22 04:07:07;;;;;;;2.22;1.37;;;;;;;19.37;50.62;98306.88;1685126;85;21068;-66
2022/05/22 04:09:36;;;;;;;2.55;1.50;;;;;;;19.36;50.62;98308.76;1686688;85;21029;-66
2022/05/22 04:12:09;;;;;;;2.50;1.60;;;;;;;19.37;50.67;98310.39;1684328;85;21044;-66
2022/05/22 04:14:38;;;;;;;4.58;1.72;;;;;;;19.36;50.69;98312.00;1686966;85;21127;-67
2022/05/22 04:17:08;;;;;;;2.33;1.50;;;;;;;19.35;50.76;98305.78;1721920;83;21002;-67
2022/05/22 04:19:36;;;;;;;2.25;1.70;;;;;;;19.36;50.74;98307.95;1686907;85;21565;-66
2022/05/22 04:22:05;;;;;;;2.20;1.55;;;;;;;19.36;50.75;98297.99;1687741;83;21053;-67
2022/05/22 04:27:17;;;;;;;3.12;1.65;;;;;;;19.38;50.79;98305.81;1679609;85;21531;-67
2022/05/22 04:29:45;;;;;;;2.60;1.57;;;;;;;19.37;50.76;98299.63;1679318;85;21070;-67
2022/05/22 04:32:11;;;;;;;2.67;1.47;;;;;;;19.37;50.78;98297.45;1679495;85;21041;-67
2022/05/22 04:34:40;;;;;;;1.98;1.50;;;;;;;19.40;50.77;98302.33;1713813;82;21046;-68
2022/05/22 04:37:08;;;;;;;2.58;1.57;;;;;;;19.41;50.78;98306.11;1680225;84;21037;-67
2022/05/22 04:39:37;;;;;;;4.17;1.82;;;;;;;19.42;50.79;98300.18;1713668;83;21039;-67
2022/05/22 04:42:05;;;;;;;7.12;1.82;;;;;;;19.44;50.73;98298.03;1713915;83;21101;-66
2022/05/22 04:44:33;;;;;;;2.62;1.42;;;;;;;19.47;50.75;98302.08;1714055;82;21074;-66
2022/05/22 04:47:02;;;;;;;3.33;1.40;;;;;;;19.47;50.71;98291.30;1676439;85;21033;-66
2022/05/22 04:49:29;;;;;;;1.80;1.50;;;;;;;19.48;50.72;98291.05;1679362;85;21050;-66
2022/05/22 04:51:58;;;;;;;2.58;1.65;;;;;;;19.50;50.68;98294.84;1679340;85;21142;-66
2022/05/22 04:54:25;;;;;;;2.30;2.10;;;;;;;19.51;50.67;98298.63;1704030;81;21026;-67
2022/05/22 04:56:56;;;;;;;3.67;1.75;;;;;;;19.53;50.59;98295.64;1742358;81;21120;-68
2022/05/22 04:59:24;;;;;;;3.20;1.52;;;;;;;19.54;50.50;98294.03;1743583;81;21030;-67
2022/05/22 05:01:51;;;;;;;4.40;1.75;;;;;;;19.55;50.44;98290.83;1743606;82;21018;-67
2022/05/22 05:04:20;;;;;;;2.50;1.40;;;;;;;19.56;50.39;98288.39;1706877;83;21158;-67
2022/05/22 05:06:58;;;;;;;3.08;1.52;;;;;;;19.57;50.30;98288.14;1706479;83;21561;-67
2022/05/22 05:09:31;;;;;;;2.00;1.45;;;;;;;19.58;50.21;98291.09;1742397;81;21010;-65
2022/05/22 05:12:01;;;;;;;5.33;2.47;;;;;;;19.58;50.08;98285.70;1742447;82;21113;-66
2022/05/22 05:14:28;;;;;;;3.12;2.27;;;;;;;19.59;50.02;98281.95;1686483;84;21042;-66
2022/05/22 05:16:54;;;;;;;3.87;2.12;;;;;;;19.60;49.83;98286.25;1707863;84;21506;-66
2022/05/22 05:19:22;;;;;;;3.02;1.90;;;;;;;19.60;49.79;98276.02;1708041;84;21061;-67
2022/05/22 05:21:49;;;;;;;2.35;2.10;;;;;;;19.62;49.68;98276.56;1707689;84;21021;-66
2022/05/22 05:24:16;;;;;;;2.27;1.65;;;;;;;19.63;49.61;98279.55;1708443;82;21029;-66
2022/05/22 05:26:42;;;;;;;2.30;1.60;;;;;;;19.65;49.58;98277.40;1715463;83;21509;-69
2022/05/22 05:29:16;;;;;;;1.87;1.55;;;;;;;19.66;49.42;98273.62;1714527;83;21150;-67
2022/05/22 05:31:44;;;;;;;1.30;1.20;;;;;;;19.67;49.34;98278.48;1715298;83;21037;-66
2022/05/22 05:34:13;;;;;;;4.15;1.50;;;;;;;19.68;49.18;98272.81;1715392;83;21073;-66
2022/05/22 05:36:45;;;;;;;1.65;1.20;;;;;;;19.70;49.06;98274.73;1751303;81;21070;-66
2022/05/22 05:39:31;;;;;;;1.65;1.40;;;;;;;19.72;49.03;98279.87;1751642;82;21015;-66
2022/05/22 05:41:57;;;;;;;1.25;1.15;;;;;;;19.72;49.04;98278.01;1751402;82;21143;-66
2022/05/22 05:44:26;;;;;;;1.80;1.20;;;;;;;19.73;49.01;98275.57;1714979;83;21046;-66
2022/05/22 05:47:04;;;;;;;1.92;1.52;;;;;;;19.74;48.95;98278.55;1674373;85;21084;-66
2022/05/22 05:49:32;;;;;;;3.27;1.77;;;;;;;19.75;48.89;98275.31;1721021;83;21561;-67
2022/05/22 05:52:18;;;;;;;3.22;1.95;;;;;;;19.75;48.91;98279.35;1721757;83;21103;-67
2022/05/22 05:54:46;;;;;;;4.40;1.92;;;;;;;19.76;48.82;98279.09;1732548;82;21140;-67
2022/05/22 05:57:15;;;;;;;2.35;2.15;;;;;;;19.77;48.76;98274.52;1747680;81;21491;-68
2022/05/22 05:59:43;;;;;;;2.62;1.82;;;;;;;19.76;48.74;98279.09;1751129;81;21501;-67
2022/05/22 06:02:13;;;;;;;3.95;1.50;;;;;;;19.76;48.73;98276.41;1744499;80;21344;-66
2022/05/22 06:04:39;;;;;;;3.37;1.72;;;;;;;19.78;48.64;98277.46;1686612;85;21056;-67
2022/05/22 06:07:08;;;;;;;4.12;1.92;;;;;;;19.78;48.58;98280.16;1686976;85;21152;-66
2022/05/22 06:09:37;;;;;;;3.27;1.98;;;;;;;19.76;48.56;98272.36;1721582;82;21062;-67
2022/05/22 06:12:06;;;;;;;1.98;1.50;;;;;;;19.78;48.56;98275.59;1684789;84;21022;-67
2022/05/22 06:14:38;;;;;;;2.42;1.40;;;;;;;19.77;48.54;98278.01;1721501;82;21077;-66
2022/05/22 06:17:05;;;;;;;2.25;1.65;;;;;;;19.77;48.55;98286.63;1721738;83;21522;-66
2022/05/22 06:19:55;;;;;;;3.35;1.80;;;;;;;19.77;48.50;98282.05;1722391;82;21113;-66
2022/05/22 06:22:24;;;;;;;2.75;1.57;;;;;;;19.75;48.44;98282.84;1721476;81;20978;-68
2022/05/22 06:24:53;;;;;;;3.02;1.60;;;;;;;19.75;48.42;98282.84;1722607;83;21100;-66
2022/05/22 06:27:34;;;;;;;1.52;1.42;;;;;;;19.74;48.43;98281.25;1698650;82;21088;-65
2022/05/22 06:30:13;;;;;;;1.65;1.37;;;;;;;19.74;48.43;98279.06;1717272;82;21557;-66
2022/05/22 06:32:43;;;;;;;1.77;1.50;;;;;;;19.74;49.56;98281.25;1678137;82;20999;-66
2022/05/22 06:35:15;;;;;;;2.40;1.40;;;;;;;19.77;50.56;98275.31;1720245;82;21009;-64
2022/05/22 06:37:46;;;;;;;4.58;1.40;;;;;;;19.80;51.52;98265.91;1678304;82;21013;-65
2022/05/22 06:40:21;;;;;;;2.47;1.52;;;;;;;19.83;51.88;98271.55;1716452;83;21506;-65
2022/05/22 06:42:49;;;;;;;1.70;1.42;;;;;;;19.87;51.95;98252.17;1719389;83;21025;-65
2022/05/22 06:45:25;;;;;;;3.62;1.40;;;;;;;19.90;51.88;98270.52;1720747;83;21138;-65
2022/05/22 06:48:04;;;;;;;2.47;1.32;;;;;;;19.92;51.84;98265.13;1720792;83;21072;-65
2022/05/22 06:50:50;;;;;;;1.65;1.40;;;;;;;19.95;51.74;98275.91;1720832;83;21037;-64
2022/05/22 06:53:27;;;;;;;3.60;1.30;;;;;;;19.97;51.67;98276.45;1711673;82;21064;-64
2022/05/22 06:56:05;;;;;;;3.92;1.50;;;;;;;19.98;51.63;98272.70;1714921;83;21006;-65
2022/05/22 06:58:35;;;;;;;1.60;1.45;;;;;;;19.99;51.58;98283.22;1720762;82;21146;-65
2022/05/22 07:01:20;;;;;;;1.82;1.47;;;;;;;20.02;51.55;98288.61;1720822;83;21001;-66
2022/05/22 07:03:51;;;;;;;1.95;1.40;;;;;;;20.04;51.49;98282.41;1713003;82;21508;-66
2022/05/22 07:06:36;;;;;;;2.75;1.47;;;;;;;20.05;51.46;98278.66;1693755;84;21095;-63
2022/05/22 07:09:19;;;;;;;1.77;1.40;;;;;;;20.07;51.41;98283.75;1677686;84;21130;-67
2022/05/22 07:12:10;;;;;;;1.87;1.50;;;;;;;20.09;51.40;98285.13;1675521;84;21111;-64
2022/05/22 07:14:45;;;;;;;1.62;1.32;;;;;;;20.11;51.39;98284.84;1645788;84;22146;-67
2022/05/22 07:17:14;;;;;;;1.75;1.47;;;;;;;20.13;51.35;98284.06;1673611;84;21602;-64
2022/05/22 07:19:45;;;;;;;1.72;1.32;;;;;;;20.14;51.34;98275.69;1671947;84;21164;-66
2022/05/22 07:22:20;;;;;;;1.52;1.42;;;;;;;20.17;51.29;98273.81;1671779;84;21106;-65
2022/05/22 07:24:49;;;;;;;1.92;1.35;;;;;;;20.18;51.30;98274.62;1678312;84;21179;-65
2022/05/22 07:27:23;;;;;;;2.75;1.40;;;;;;;20.20;51.28;98272.47;1629265;84;21077;-63
2022/05/22 07:29:52;;;;;;;1.75;1.45;;;;;;;20.21;51.29;98281.64;1668577;84;21070;-65
2022/05/22 07:32:26;;;;;;;1.50;1.40;;;;;;;20.23;51.29;98270.05;1669040;84;21102;-64
2022/05/22 07:34:57;;;;;;;1.42;1.32;;;;;;;20.25;51.25;98277.08;1664752;84;21054;-63
2022/05/22 07:37:50;;;;;;;2.47;1.25;;;;;;;20.22;51.23;98279.75;1680027;83;21046;-63
2022/05/22 07:40:30;;;;;;;1.82;1.20;;;;;;;20.27;51.20;98273.57;1676624;83;21546;-64
2022/05/22 07:43:14;;;;;;;1.60;1.50;;;;;;;20.28;51.17;98283.27;1596033;88;21109;-64
2022/05/22 07:45:42;;;;;;;1.30;1.20;;;;;;;20.29;51.12;98287.59;1646036;83;21566;-63
2022/05/22 07:48:13;;;;;;;1.40;1.30;;;;;;;20.29;51.12;98280.86;1676128;83;21051;-64
2022/05/22 07:50:57;;;;;;;2.30;1.57;;;;;;;20.31;51.11;98276.80;1644614;83;21166;-63
2022/05/22 07:53:34;;;;;;;1.70;1.60;;;;;;;20.32;51.10;98277.09;1595033;88;21150;-63
2022/05/22 07:56:07;;;;;;;1.98;1.70;;;;;;;20.34;51.12;98288.94;1691472;82;21072;-63
2022/05/22 07:58:35;;;;;;;1.82;1.40;;;;;;;20.35;51.15;98282.48;1684180;84;21570;-64
2022/05/22 08:01:05;;;;;;;1.50;1.40;;;;;;;20.34;51.11;98288.94;1687670;83;21069;-63
2022/05/22 08:03:51;;;;;;;1.50;1.40;;;;;;;20.33;51.10;98284.09;1687617;82;21153;-63
2022/05/22 08:06:19;;;;;;;1.60;1.50;;;;;;;20.39;51.09;98277.62;1676962;82;20994;-64
2022/05/22 08:08:46;;;;;;;2.15;1.40;;;;;;;20.40;51.06;98286.55;1745213;82;21077;-63
2022/05/22 08:11:16;;;;;;;1.75;1.40;;;;;;;20.43;51.10;98284.09;1745205;82;21474;-64
2022/05/22 08:13:49;;;;;;;1.50;1.40;;;;;;;20.46;51.24;98284.11;1744901;82;21555;-64
2022/05/22 08:16:16;;;;;;;1.52;1.42;;;;;;;20.49;51.44;98281.41;1746212;80;21213;-63
2022/05/22 08:18:45;;;;;;;1.47;1.37;;;;;;;20.52;51.76;98276.84;1737676;81;21014;-64
2022/05/22 08:21:11;;;;;;;1.90;1.70;;;;;;;20.54;51.67;98283.58;1748942;81;21101;-64
2022/05/22 08:23:40;;;;;;;1.65;1.55;;;;;;;20.57;51.61;98281.70;1749526;81;21026;-63
2022/05/22 08:26:14;;;;;;;3.02;1.70;;;;;;;20.60;51.64;98281.72;1753205;81;21073;-64
2022/05/22 08:28:41;;;;;;;1.60;1.50;;;;;;;20.64;51.78;98294.14;1756657;81;21137;-63
2022/05/22 08:31:08;;;;;;;1.70;1.60;;;;;;;20.66;51.69;98283.88;1756686;81;21046;-65
2022/05/22 08:33:35;;;;;;;1.40;1.30;;;;;;;20.68;51.74;98289.82;1756756;81;21006;-64
2022/05/22 08:36:05;;;;;;;1.52;1.20;;;;;;;20.70;51.55;98284.96;1665809;83;21069;-64
2022/05/22 08:38:31;;;;;;;1.70;1.60;;;;;;;20.72;51.65;98292.25;1720786;83;21025;-64
2022/05/22 08:41:11;;;;;;;2.17;1.52;;;;;;;20.74;51.64;98290.89;1720691;83;21765;-64
2022/05/22 08:43:49;;;;;;;1.50;1.40;;;;;;;20.77;51.63;98280.91;1715291;82;21100;-64
2022/05/22 08:46:37;;;;;;;1.55;1.27;;;;;;;20.81;51.43;98296.83;1691728;83;21036;-64
2022/05/22 08:49:31;;;;;;;1.52;1.42;;;;;;;20.86;51.32;98297.91;1705962;83;21534;-64
2022/05/22 08:52:05;;;;;;;1.45;1.35;;;;;;;20.87;51.25;98290.89;1719770;83;21052;-64
2022/05/22 08:54:38;;;;;;;2.47;1.60;;;;;;;20.89;51.13;98294.13;1712234;82;20998;-63
2022/05/22 09:00:13;;;;;;;1.40;1.30;;;;;;;20.94;51.07;98299.53;1719120;82;21048;-63
2022/05/22 09:03:00;;;;;;;2.37;1.47;;;;;;;20.97;51.01;98298.98;1720674;82;21092;-64
2022/05/22 09:05:28;;;;;;;1.37;1.27;;;;;;;20.98;51.00;98301.95;1704902;83;21100;-63
2022/05/22 09:08:03;;;;;;;1.77;1.37;;;;;;;20.99;51.08;98296.81;1720617;83;21868;-62
2022/05/22 09:10:57;;;;;;;1.40;1.30;;;;;;;21.00;51.17;98306.55;1719497;83;21065;-65
2022/05/22 09:13:53;;;;;;;;;;;;;;;21.03;51.24;98308.44;1722280;83;21037;-64
2022/05/22 09:16:43;;;;;;;1.30;1.20;;;;;;;21.04;51.31;98299.27;1720888;82;20504;-63
2022/05/22 09:19:17;;;;;;;1.45;1.30;;;;;;;21.01;51.47;98310.88;1714761;83;21026;-63
2022/05/22 09:21:58;;;;;;;1.50;1.40;;;;;;;21.02;51.41;98310.33;1714848;83;21291;-64
2022/05/22 09:24:36;;;;;;;1.20;1.10;;;;;;;21.02;51.52;98299.53;1714660;83;21081;-64
2022/05/22 09:27:25;;;;;;;1.22;1.12;;;;;;;21.02;51.40;98306.28;1690206;84;21038;-62
2022/05/22 09:30:37;;;;;;;1.30;1.17;;;;;;;21.01;51.37;98306.83;1706789;84;21038;-62
2022/05/22 09:33:24;;;;;;;1.40;1.30;;;;;;;21.03;51.27;98312.48;1706755;84;21042;-62
2022/05/22 09:36:21;;;;;;;2.20;1.20;;;;;;;21.03;51.29;98312.48;1707402;84;21788;-62
2022/05/22 09:39:02;;;;;;;1.40;1.30;;;;;;;21.03;51.31;98314.63;1706535;84;20976;-62
2022/05/22 09:41:37;;;;;;;1.60;1.50;;;;;;;21.04;51.53;98308.72;1669439;84;21102;-63
2022/05/22 09:44:49;;;;;;;1.30;1.20;;;;;;;21.05;51.40;98321.12;1698710;84;21074;-63
2022/05/22 09:47:36;;;;;;;2.70;1.50;;;;;;;21.05;51.50;98319.22;1714979;83;21518;-62
2022/05/22 09:50:13;;;;;;;1.25;1.22;;;;;;;21.07;51.32;98321.66;1705875;83;21493;-63
2022/05/22 09:53:08;;;;;;;1.67;1.57;;;;;;;21.07;51.26;98329.20;1715254;83;21493;-63
2022/05/22 09:55:51;;;;;;;1.35;1.25;;;;;;;21.08;51.12;98323.28;1715459;82;21021;-64
2022/05/22 09:58:39;;;;;;;2.17;1.40;;;;;;;21.10;51.07;98323.27;1715642;83;20986;-63
2022/05/22 10:01:11;;;;;;;1.20;1.20;;;;;;;21.11;51.10;98324.08;1713940;83;20998;-63
2022/05/22 10:03:51;;;;;;;1.55;1.35;;;;;;;21.11;51.07;98329.48;1715454;83;21137;-63
2022/05/22 10:06:39;;;;;;;1.30;1.20;;;;;;;21.12;51.06;98337.31;1713874;83;21013;-63
2022/05/22 10:09:35;;;;;;;1.02;1.02;;;;;;;21.13;51.04;98333.55;1711308;83;21009;-63
2022/05/22 10:12:19;;;;;;;1.40;1.30;;;;;;;21.13;51.04;98328.66;1715067;83;21088;-62
2022/05/22 10:15:14;;;;;;;1.40;1.30;;;;;;;21.14;51.01;98338.39;1714370;82;21029;-63
2022/05/22 10:17:58;;;;;;;1.25;1.22;;;;;;;21.14;51.04;98332.45;1707579;82;21160;-64
2022/05/22 10:20:49;;;;;;;1.20;1.10;;;;;;;21.14;50.97;98348.65;1711294;83;21033;-63
2022/05/22 10:23:40;;;;;;;1.05;1.05;;;;;;;21.16;50.91;98351.08;1748163;82;21002;-63
2022/05/22 10:26:31;;;;;;;1.95;1.07;;;;;;;21.15;50.79;98336.78;1749734;81;21113;-64
2022/05/22 10:29:07;;;;;;;1.07;1.07;;;;;;;21.16;50.85;98348.38;1743425;81;21026;-64
2022/05/22 10:31:52;;;;;;;1.57;1.40;;;;;;;21.15;50.86;98349.45;1742514;81;21212;-62
2022/05/22 10:34:42;;;;;;;1.37;1.27;;;;;;;21.17;50.83;98345.94;1716371;82;21546;-64
2022/05/22 10:37:20;;;;;;;1.45;1.22;;;;;;;21.17;50.81;98341.89;1743469;82;21082;-63
2022/05/22 10:39:48;;;;;;;1.45;1.30;;;;;;;21.18;50.71;98349.72;1734837;82;21635;-63
2022/05/22 10:42:46;;;;;;;2.08;1.20;;;;;;;21.19;50.71;98339.75;1687768;85;21055;-63
2022/05/22 10:45:34;;;;;;;1.10;1.10;;;;;;;21.19;50.72;98345.95;1687772;85;21146;-63
2022/05/22 10:48:22;;;;;;;1.40;1.30;;;;;;;21.20;50.63;98352.95;1687804;85;21560;-63
2022/05/22 10:51:09;;;;;;;1.40;1.30;;;;;;;21.21;50.59;98351.09;1735931;82;21081;-63
2022/05/22 10:53:40;;;;;;;3.00;1.25;;;;;;;21.20;50.62;98365.11;1713701;83;21534;-63
2022/05/22 10:56:24;;;;;;;1.30;1.20;;;;;;;21.21;50.53;98359.19;1701002;84;21102;-63
2022/05/22 10:58:57;;;;;;;1.37;1.27;;;;;;;21.22;50.56;98360.80;1734719;82;21214;-63
2022/05/22 11:01:28;;;;;;;1.40;1.30;;;;;;;21.23;50.57;98358.89;1739675;81;21045;-64
2022/05/22 11:04:11;;;;;;;2.00;1.25;;;;;;;21.22;50.53;98366.20;1736898;82;21080;-64
2022/05/22 11:06:54;;;;;;;2.12;1.37;;;;;;;21.22;50.57;98366.20;1737001;82;21022;-64
2022/05/22 11:09:30;;;;;;;1.40;1.03;;;;;;;21.21;50.57;98369.45;1700805;82;21057;-64
2022/05/22 11:12:10;;;;;;;1.45;1.30;;;;;;;21.21;50.57;98364.59;1678969;85;21227;-63
2022/05/22 11:14:37;;;;;;;1.50;1.30;;;;;;;21.20;50.57;98362.95;1741908;82;21038;-63
2022/05/22 11:17:20;;;;;;;1.30;1.20;;;;;;;21.20;50.60;98362.95;1743557;82;21025;-63
2022/05/22 11:19:49;;;;;;;1.82;1.30;;;;;;;21.21;50.58;98375.39;1743311;82;21038;-63
2022/05/22 11:23:03;;;;;;;1.50;1.40;;;;;;;21.20;50.58;98379.16;1743235;82;21570;-64
2022/05/22 11:25:47;;;;;;;1.60;1.50;;;;;;;21.20;50.59;98377.27;1724387;82;21023;-63
2022/05/22 11:28:22;;;;;;;1.17;1.15;;;;;;;21.20;50.59;98380.52;1704969;82;21487;-63
2022/05/22 11:31:23;;;;;;;1.92;1.20;;;;;;;21.19;50.64;98382.95;1715786;82;21021;-64
2022/05/22 11:34:17;;;;;;;1.02;1.02;;;;;;;21.18;50.63;98390.77;1723384;82;21007;-63
2022/05/22 11:37:36;;;;;;;1.40;1.30;;;;;;;21.17;50.61;98389.14;1708122;82;20982;-63
2022/05/22 11:41:37;;;;;;;1.50;1.40;;;;;;;21.19;50.63;98385.66;1870105;76;22600;-63
2022/05/22 11:44:44;;;;;;;1.67;1.37;;;;;;;21.15;50.62;98391.30;1825267;78;21009;-63
2022/05/22 11:47:42;;;;;;;1.80;1.47;;;;;;;21.14;50.67;98397.80;1826312;78;21144;-63
2022/05/22 11:50:45;;;;;;;1.40;1.30;;;;;;;21.11;50.68;98396.98;1796007;78;20930;-62
2022/05/22 11:53:48;;;;;;;1.70;1.60;;;;;;;21.11;50.72;98402.38;1794032;78;21260;-63
2022/05/22 11:57:05;;;;;;;1.45;1.35;;;;;;;21.09;50.75;98397.79;1835972;77;21011;-63
2022/05/22 11:59:48;;;;;;;1.40;1.30;;;;;;;21.08;50.79;98406.98;1841677;77;20874;-63
2022/05/22 12:02:25;;;;;;;1.27;1.17;;;;;;;21.07;50.81;98405.34;1793951;79;21142;-62
2022/05/22 12:05:10;;;;;;;1.15;1.10;;;;;;;21.05;50.85;98412.36;1793774;79;20918;-63
2022/05/22 12:08:11;;;;;;;1.32;1.22;;;;;;;21.05;50.83;98411.56;1793849;79;21108;-63
2022/05/22 12:11:08;;;;;;;1.37;1.30;;;;;;;21.04;50.82;98415.36;1794128;80;21525;-63
2022/05/22 12:14:07;;;;;;;1.60;1.27;;;;;;;21.03;50.85;98422.63;1793861;79;21021;-62
2022/05/22 12:16:43;;;;;;;1.65;1.55;;;;;;;21.01;50.86;98412.11;1802440;78;22114;-63
2022/05/22 12:19:20;;;;;;;1.35;1.25;;;;;;;21.01;50.88;98410.77;1826451;78;21009;-63
2022/05/22 12:22:16;;;;;;;1.50;1.40;;;;;;;21.00;50.91;98416.42;1826275;78;20998;-62